createdAt,value
2018-04-06T00:00:26.798Z,719.48
2018-04-06T00:01:27.268Z,719.50
2018-04-06T00:02:27.781Z,719.51
2018-04-06T00:03:28.212Z,719.51
2018-04-06T00:04:28.683Z,719.52
2018-04-06T00:05:29.155Z,719.51
2018-04-06T00:06:29.628Z,719.47
2018-04-06T00:07:30.099Z,719.52
2018-04-06T00:08:30.569Z,719.46
2018-04-06T00:09:31.042Z,719.43
2018-04-06T00:10:31.512Z,719.48
2018-04-06T00:11:31.988Z,719.49
2018-04-06T00:12:32.458Z,719.54
2018-04-06T00:13:32.931Z,719.49
2018-04-06T00:14:33.401Z,719.50
2018-04-06T00:15:33.872Z,719.53
2018-04-06T00:16:34.344Z,719.59
2018-04-06T00:17:34.817Z,719.52
2018-04-06T00:18:35.287Z,719.53
2018-04-06T00:19:35.760Z,719.53
2018-04-06T00:20:36.231Z,719.49
2018-04-06T00:21:36.704Z,719.47
2018-04-06T00:22:37.176Z,719.49
2018-04-06T00:23:37.647Z,719.49
2018-04-06T00:24:38.121Z,719.54
2018-04-06T00:25:38.591Z,719.47
2018-04-06T00:26:39.062Z,719.52
2018-04-06T00:27:39.535Z,719.46
2018-04-06T00:28:40.005Z,719.53
2018-04-06T00:29:40.477Z,719.42
2018-04-06T00:30:40.949Z,719.48
2018-04-06T00:31:41.422Z,719.51
2018-04-06T00:32:41.896Z,719.48
2018-04-06T00:33:42.366Z,719.48
2018-04-06T00:34:42.838Z,719.50
2018-04-06T00:35:43.309Z,719.52
2018-04-06T00:36:43.780Z,719.52
2018-04-06T00:37:44.252Z,719.48
2018-04-06T00:38:44.724Z,719.44
2018-04-06T00:39:45.194Z,719.38
2018-04-06T00:40:45.665Z,719.44
2018-04-06T00:41:46.140Z,719.50
2018-04-06T00:42:46.612Z,719.53
2018-04-06T00:43:47.083Z,719.49
2018-04-06T00:44:47.556Z,719.52
2018-04-06T00:45:48.025Z,719.50
2018-04-06T00:46:48.505Z,719.44
2018-04-06T00:47:48.968Z,719.55
2018-04-06T00:48:49.438Z,719.43
2018-04-06T00:49:49.911Z,719.50
2018-04-06T00:50:50.383Z,719.42
2018-04-06T00:51:50.855Z,719.40
2018-04-06T00:52:51.327Z,719.46
2018-04-06T00:53:51.798Z,719.42
2018-04-06T00:54:52.270Z,719.44
2018-04-06T00:55:52.744Z,719.47
2018-04-06T00:56:53.213Z,719.49
2018-04-06T00:57:53.685Z,719.49
2018-04-06T00:58:54.208Z,719.51
2018-04-06T00:59:54.632Z,719.47
2018-04-06T01:00:55.102Z,719.48
2018-04-06T01:01:55.572Z,719.45
2018-04-06T01:02:56.042Z,719.47
2018-04-06T01:03:56.515Z,719.51
2018-04-06T01:04:56.988Z,719.44
2018-04-06T01:05:57.459Z,719.41
2018-04-06T01:06:57.934Z,719.40
2018-04-06T01:07:58.402Z,719.45
2018-04-06T01:08:58.874Z,719.41
2018-04-06T01:09:59.345Z,719.45
2018-04-06T01:10:59.816Z,719.38
2018-04-06T01:12:00.292Z,719.39
2018-04-06T01:13:00.760Z,719.39
2018-04-06T01:14:01.231Z,719.38
2018-04-06T01:15:01.705Z,719.43
2018-04-06T01:16:02.175Z,719.39
2018-04-06T01:17:02.646Z,719.43
2018-04-06T01:18:03.117Z,719.41
2018-04-06T01:19:03.589Z,719.44
2018-04-06T01:20:04.063Z,719.47
2018-04-06T01:21:04.532Z,719.48
2018-04-06T01:22:05.005Z,719.47
2018-04-06T01:23:05.478Z,719.49
2018-04-06T01:24:05.946Z,719.42
2018-04-06T01:25:06.417Z,719.46
2018-04-06T01:26:06.889Z,719.48
2018-04-06T01:27:07.361Z,719.52
2018-04-06T01:28:07.837Z,719.48
2018-04-06T01:29:08.303Z,719.42
2018-04-06T01:30:08.776Z,719.44
2018-04-06T01:31:09.248Z,719.44
2018-04-06T01:32:09.721Z,719.44
2018-04-06T01:33:10.190Z,719.43
2018-04-06T01:34:10.661Z,719.39
2018-04-06T01:35:11.138Z,719.45
2018-04-06T01:36:11.604Z,719.38
2018-04-06T01:37:12.074Z,719.40
2018-04-06T01:38:12.549Z,719.39
2018-04-06T01:39:13.067Z,719.38
2018-04-06T01:40:13.491Z,719.40
2018-04-06T01:41:13.961Z,719.41
2018-04-06T01:42:14.435Z,719.45
2018-04-06T01:43:14.904Z,719.43
2018-04-06T01:44:15.379Z,719.47
2018-04-06T01:45:15.846Z,719.42
2018-04-06T01:46:16.318Z,719.43
2018-04-06T01:47:16.792Z,719.41
2018-04-06T01:48:17.259Z,719.42
2018-04-06T01:49:17.785Z,719.43
2018-04-06T01:50:18.202Z,719.47
2018-04-06T01:51:18.674Z,719.48
2018-04-06T01:52:19.151Z,719.47
2018-04-06T01:53:19.617Z,719.52
2018-04-06T01:54:20.087Z,719.48
2018-04-06T01:55:20.563Z,719.55
2018-04-06T01:56:21.032Z,719.47
2018-04-06T01:57:21.501Z,719.54
2018-04-06T01:58:21.975Z,719.54
2018-04-06T01:59:22.498Z,719.49
2018-04-06T02:00:22.918Z,719.56
2018-04-06T02:01:23.386Z,719.48
2018-04-06T02:02:23.858Z,719.50
2018-04-06T02:03:24.331Z,719.49
2018-04-06T02:04:24.802Z,719.53
2018-04-06T02:05:25.272Z,719.49
2018-04-06T02:06:25.747Z,719.50
2018-04-06T02:07:26.215Z,719.57
2018-04-06T02:08:26.689Z,719.51
2018-04-06T02:09:27.158Z,719.55
2018-04-06T02:10:27.629Z,719.55
2018-04-06T02:11:28.103Z,719.50
2018-04-06T02:12:28.577Z,719.54
2018-04-06T02:13:29.042Z,719.46
2018-04-06T02:14:29.512Z,719.48
2018-04-06T02:15:29.986Z,719.49
2018-04-06T02:16:30.457Z,719.51
2018-04-06T02:17:30.928Z,719.55
2018-04-06T02:18:31.400Z,719.54
2018-04-06T02:19:31.921Z,719.56
2018-04-06T02:20:32.343Z,719.49
2018-04-06T02:21:32.814Z,719.60
2018-04-06T02:22:33.288Z,719.53
2018-04-06T02:23:33.755Z,719.55
2018-04-06T02:24:34.307Z,719.48
2018-04-06T02:25:34.698Z,719.49
2018-04-06T02:26:35.174Z,719.52
2018-04-06T02:27:35.640Z,719.56
2018-04-06T02:28:36.113Z,719.48
2018-04-06T02:29:36.633Z,719.45
2018-04-06T02:30:37.055Z,719.49
2018-04-06T02:31:37.524Z,719.52
2018-04-06T02:32:38.002Z,719.52
2018-04-06T02:33:38.467Z,719.50
2018-04-06T02:34:38.938Z,719.48
2018-04-06T02:35:39.413Z,719.46
2018-04-06T02:36:39.882Z,719.42
2018-04-06T02:37:40.355Z,719.42
2018-04-06T02:38:40.824Z,719.43
2018-04-06T02:39:41.344Z,719.47
2018-04-06T02:40:41.769Z,719.44
2018-04-06T02:41:42.236Z,719.44
2018-04-06T02:42:42.708Z,719.43
2018-04-06T02:43:43.187Z,719.49
2018-04-06T02:44:43.704Z,719.47
2018-04-06T02:45:44.121Z,719.47
2018-04-06T02:46:44.594Z,719.46
2018-04-06T02:47:45.060Z,719.47
2018-04-06T02:48:45.536Z,719.48
2018-04-06T02:49:46.066Z,719.49
2018-04-06T02:50:46.476Z,719.48
2018-04-06T02:51:46.949Z,719.56
2018-04-06T02:52:47.422Z,719.62
2018-04-06T02:53:47.889Z,719.59
2018-04-06T02:54:48.361Z,719.44
2018-04-06T02:55:48.831Z,719.55
2018-04-06T02:56:49.303Z,719.54
2018-04-06T02:57:49.774Z,719.62
2018-04-06T02:58:50.245Z,719.53
2018-04-06T02:59:50.769Z,719.58
2018-04-06T03:00:51.188Z,719.68
2018-04-06T03:02:52.133Z,719.66
2018-04-06T03:03:52.602Z,719.56
2018-04-06T03:04:53.083Z,719.62
2018-04-06T03:05:53.541Z,719.72
2018-04-06T03:06:54.218Z,719.65
2018-04-06T03:07:54.491Z,719.61
2018-04-06T03:08:54.960Z,719.71
2018-04-06T03:09:55.482Z,719.68
2018-04-06T03:10:55.897Z,719.62
2018-04-06T03:11:56.373Z,719.66
2018-04-06T03:12:56.847Z,719.62
2018-04-06T03:13:57.312Z,719.67
2018-04-06T03:15:58.251Z,719.63
2018-04-06T03:17:59.202Z,719.63
2018-04-06T03:20:00.191Z,719.60
2018-04-06T03:21:00.614Z,719.61
2018-04-06T03:22:01.087Z,719.68
2018-04-06T03:24:02.017Z,719.73
2018-04-06T03:26:02.971Z,719.66
2018-04-06T03:27:03.435Z,719.68
2018-04-06T03:28:03.907Z,719.64
2018-04-06T03:29:04.575Z,719.67
2018-04-06T03:30:04.900Z,719.63
2018-04-06T03:31:05.320Z,719.69
2018-04-06T03:32:05.794Z,719.64
2018-04-06T03:33:06.263Z,719.70
2018-04-06T03:34:06.733Z,719.73
2018-04-06T03:35:07.203Z,719.69
2018-04-06T03:38:08.617Z,719.69
2018-04-06T03:39:09.087Z,719.71
2018-04-06T03:40:09.609Z,719.73
2018-04-06T03:41:10.023Z,719.82
2018-04-06T03:42:10.700Z,719.85
2018-04-06T03:44:11.439Z,719.89
2018-04-06T03:45:11.910Z,719.88
2018-04-06T03:46:12.387Z,719.85
2018-04-06T03:47:12.851Z,719.92
2018-04-06T03:48:13.316Z,719.84
2018-04-06T03:50:14.314Z,719.89
2018-04-06T03:51:14.733Z,719.88
2018-04-06T03:53:15.678Z,719.87
2018-04-06T03:54:16.147Z,719.91
2018-04-06T03:56:17.089Z,719.90
2018-04-06T03:57:17.756Z,719.88
2018-04-06T03:58:18.028Z,719.91
2018-04-06T03:59:18.500Z,719.87
2018-04-06T04:00:19.021Z,719.91
2018-04-06T04:01:19.648Z,719.90
2018-04-06T04:02:20.114Z,719.88
2018-04-06T04:03:20.583Z,719.96
2018-04-06T04:04:22.267Z,719.93
2018-04-06T04:05:21.374Z,719.98
2018-04-06T04:06:21.989Z,719.91
2018-04-06T04:07:22.468Z,719.98
2018-04-06T04:08:22.942Z,720.03
2018-04-06T04:09:23.210Z,719.95
2018-04-06T04:10:24.486Z,719.95
2018-04-06T04:12:24.617Z,720.01
2018-04-06T04:13:25.087Z,719.94
2018-04-06T04:14:25.558Z,720.06
2018-04-06T04:15:26.026Z,720.06
2018-04-06T04:16:26.498Z,720.05
2018-04-06T04:17:27.173Z,720.08
2018-04-06T04:18:30.470Z,720.14
2018-04-06T04:19:27.909Z,720.09
2018-04-06T04:26:31.406Z,720.16
2018-04-06T04:27:31.672Z,720.17
2018-04-06T04:28:32.549Z,720.12
2018-04-06T04:29:32.614Z,720.11
2018-04-06T04:30:33.337Z,720.13
2018-04-06T04:32:34.027Z,720.09
2018-04-06T04:33:34.498Z,720.04
2018-04-06T04:34:35.370Z,720.14
2018-04-06T04:38:38.268Z,720.12
2018-04-06T04:39:37.725Z,720.11
2018-04-06T04:40:38.043Z,720.13
2018-04-06T04:41:39.660Z,720.12
2018-04-06T04:43:39.197Z,720.23
2018-04-06T04:44:39.672Z,720.23
2018-04-06T04:45:51.522Z,720.18
2018-04-06T04:48:41.550Z,720.17
2018-04-06T04:50:42.698Z,720.13
2018-04-06T04:51:44.785Z,720.16
2018-04-06T04:52:45.260Z,720.13
2018-04-06T04:54:44.580Z,720.23
2018-04-06T04:55:45.103Z,720.18
2018-04-06T04:56:46.735Z,720.16
2018-04-06T04:57:45.792Z,720.18
2018-04-06T05:01:47.674Z,720.26
2018-04-06T05:02:48.345Z,720.29
2018-04-06T05:04:49.085Z,720.29
2018-04-06T05:05:51.174Z,720.34
2018-04-06T05:06:50.231Z,720.29
2018-04-06T05:07:51.687Z,720.36
2018-04-06T05:10:04.583Z,720.41
2018-04-06T05:10:57.186Z,720.44
2018-04-06T05:14:54.401Z,720.47
2018-04-06T05:23:59.848Z,720.49
2018-04-06T05:24:59.309Z,720.51
2018-04-06T05:28:00.717Z,720.57
2018-04-06T05:30:01.257Z,720.51
2018-04-06T05:33:08.943Z,720.56
2018-04-06T05:37:04.811Z,720.59
2018-04-06T05:55:27.623Z,720.79
2018-04-06T05:56:28.294Z,720.76
2018-04-06T05:58:41.033Z,720.73
2018-04-06T06:00:29.435Z,720.76
2018-04-06T06:02:30.180Z,720.81
2018-04-06T06:03:30.847Z,720.81
2018-04-06T06:05:31.790Z,720.81
2018-04-06T06:06:32.262Z,720.86
2018-04-06T06:12:34.949Z,720.90
2018-04-06T06:13:35.561Z,720.94
2018-04-06T06:17:37.849Z,721.02
2018-04-06T06:19:38.195Z,721.05
2018-04-06T06:20:38.863Z,721.05
2018-04-06T06:22:39.855Z,721.03
2018-04-06T06:23:40.068Z,721.03
2018-04-06T06:25:41.219Z,721.05
2018-04-06T06:26:42.894Z,721.03
2018-04-06T06:28:45.464Z,721.09
2018-04-06T06:29:43.105Z,721.05
2018-04-06T06:30:57.326Z,721.12
2018-04-06T06:31:45.463Z,721.09
2018-04-06T06:32:48.211Z,721.11
2018-04-06T06:35:46.131Z,721.12
2018-04-06T06:37:46.726Z,721.14
2018-04-06T06:38:47.351Z,721.16
2018-04-06T06:39:48.812Z,721.12
2018-04-06T06:42:50.778Z,721.13
2018-04-06T06:43:50.520Z,721.10
2018-04-06T06:44:49.977Z,721.08
2018-04-06T06:45:51.856Z,721.18
2018-04-06T06:49:52.748Z,721.21
2018-04-06T06:52:54.364Z,721.15
2018-04-06T06:53:54.970Z,721.22
2018-04-06T07:07:00.778Z,721.29
2018-04-06T07:10:05.633Z,721.30
2018-04-06T07:15:06.368Z,721.39
2018-04-06T07:16:06.433Z,721.37
2018-04-06T07:20:08.077Z,721.42
2018-04-06T08:04:30.136Z,721.64
2018-04-06T08:14:10.782Z,721.69
2018-04-06T08:32:33.872Z,721.77
2018-04-06T08:43:37.515Z,721.94
2018-04-06T08:45:39.205Z,721.96
2018-04-06T08:49:43.132Z,721.96
2018-04-06T09:39:01.710Z,722.13
2018-04-06T09:46:17.287Z,722.22
2018-04-06T09:55:07.608Z,722.27
2018-04-06T10:41:05.138Z,722.23
2018-04-06T10:42:00.733Z,722.23
2018-04-06T10:52:33.431Z,722.24
2018-04-06T11:01:40.634Z,722.24
2018-04-06T11:13:10.724Z,722.16
2018-04-06T11:14:14.782Z,722.23
2018-04-06T11:16:18.037Z,722.24
2018-04-06T11:17:17.966Z,722.23
2018-04-06T11:19:16.015Z,722.14
2018-04-06T11:57:16.534Z,722.23
2018-04-06T12:02:31.627Z,722.26
2018-04-06T12:12:04.341Z,722.23
2018-04-06T12:20:08.525Z,722.23
2018-04-06T12:31:44.411Z,722.22
2018-04-06T13:25:48.813Z,722.11
2018-04-06T14:01:23.709Z,722.02
2018-04-06T14:03:12.845Z,722.03
2018-04-06T14:16:26.973Z,722.01
2018-04-06T14:18:42.263Z,722.02
2018-04-06T14:35:12.198Z,722.07
2018-04-06T21:11:04.513Z,722.50
2018-04-06T21:16:08.112Z,722.47
2018-04-06T21:17:20.836Z,722.43
2018-04-06T21:34:15.438Z,722.33
2018-04-06T21:46:24.477Z,722.35
2018-04-06T21:48:22.276Z,722.40
2018-04-06T21:49:25.897Z,722.35
2018-04-06T21:51:24.261Z,722.39
2018-04-06T21:53:26.552Z,722.33
2018-04-06T22:01:29.938Z,722.34
2018-04-06T22:02:29.975Z,722.32
2018-04-06T22:08:31.531Z,722.29
2018-04-06T22:09:32.280Z,722.38
2018-04-06T22:10:33.045Z,722.36
2018-04-06T22:11:34.622Z,722.34
2018-04-06T22:13:33.862Z,722.26
2018-04-06T22:15:38.209Z,722.26
2018-04-06T22:17:36.161Z,722.22
2018-04-06T22:19:36.786Z,722.24
2018-04-06T22:30:45.620Z,722.17
2018-04-06T22:35:44.038Z,722.13
2018-04-06T22:38:45.806Z,722.17
2018-04-06T22:44:50.454Z,722.13
2018-04-06T22:49:51.004Z,722.16
2018-04-06T22:51:51.995Z,722.15
2018-04-06T22:52:53.635Z,722.20
2018-04-06T22:54:53.165Z,722.18
2018-04-06T22:55:54.847Z,722.14
2018-04-06T22:56:53.909Z,722.12
2018-04-06T23:00:56.207Z,722.03
2018-04-06T23:01:56.325Z,722.01
2018-04-06T23:02:56.743Z,722.00
2018-04-06T23:03:57.222Z,722.06
2018-04-06T23:05:58.374Z,721.99
2018-04-06T23:09:00.196Z,721.96
2018-04-06T23:10:00.400Z,722.04
2018-04-06T23:11:00.940Z,722.02
2018-04-06T23:12:01.011Z,722.06
2018-04-06T23:14:01.953Z,722.03
2018-04-06T23:21:05.477Z,722.03
2018-04-06T23:23:07.862Z,721.96
2018-04-06T23:27:08.924Z,721.97
2018-04-06T23:31:56.040Z,721.92
2018-04-06T23:34:09.824Z,721.97
2018-04-06T23:35:57.797Z,721.96
2018-04-06T23:37:00.494Z,721.99
2018-04-06T23:38:59.624Z,721.96
2018-04-06T23:41:00.101Z,721.92
2018-04-06T23:45:02.272Z,721.93
2018-04-06T23:46:03.546Z,721.97
2018-04-06T23:48:03.873Z,721.89
2018-04-06T23:52:06.126Z,721.90
2018-04-06T23:58:08.628Z,721.81
